METAR Data
IDs: Format: Raw Decoded Include TAF

Data at: 2123 UTC 26 May 2019

METAR for:KDAY (Dayton/Cox Intl, OH, US)
Text:KDAY 262056Z 34010KT 10SM FEW050 SCT170 BKN200 27/18 A3002 RMK AO2 SLP158 T02720183 55008
Temperature: 27.2°C ( 81°F)
Dewpoint: 18.3°C ( 65°F) [RH = 58%]
Pressure (altimeter):30.02 inches Hg (1016.7 mb) [Sea level pressure: 1015.8 mb]
Winds:from the NNW (340 degrees) at 12 MPH (10 knots; 5.1 m/s)
Visibility:10 or more sm (16+ km)
Ceiling:20000 feet AGL
Clouds: few clouds at 5000 feet AGL, scattered clouds at 17000 feet AGL, broken clouds at 20000 feet AGL